sensor_id;sensor_type;location;lat;lon;timestamp;temperature;humidity
14142;DHT22;7151;52.246;4.820;2023-05-24T00:00:30;16.60;59.40
14142;DHT22;7151;52.246;4.820;2023-05-24T00:02:56;16.60;59.50
14142;DHT22;7151;52.246;4.820;2023-05-24T00:05:22;16.60;59.50
14142;DHT22;7151;52.246;4.820;2023-05-24T00:07:48;16.60;59.70
14142;DHT22;7151;52.246;4.820;2023-05-24T00:10:13;16.60;59.70
14142;DHT22;7151;52.246;4.820;2023-05-24T00:12:39;16.50;59.70
14142;DHT22;7151;52.246;4.820;2023-05-24T00:15:05;16.50;59.80
14142;DHT22;7151;52.246;4.820;2023-05-24T00:17:30;16.50;59.80
14142;DHT22;7151;52.246;4.820;2023-05-24T00:19:56;16.40;59.80
14142;DHT22;7151;52.246;4.820;2023-05-24T00:22:22;16.40;59.90
14142;DHT22;7151;52.246;4.820;2023-05-24T00:24:48;16.40;60.00
14142;DHT22;7151;52.246;4.820;2023-05-24T00:27:14;16.30;60.10
14142;DHT22;7151;52.246;4.820;2023-05-24T00:29:39;16.30;60.20
14142;DHT22;7151;52.246;4.820;2023-05-24T00:32:05;16.30;60.30
14142;DHT22;7151;52.246;4.820;2023-05-24T00:34:31;16.30;60.40
14142;DHT22;7151;52.246;4.820;2023-05-24T00:36:56;16.20;60.40
14142;DHT22;7151;52.246;4.820;2023-05-24T00:39:22;16.20;61.20
14142;DHT22;7151;52.246;4.820;2023-05-24T00:41:48;16.20;60.60
14142;DHT22;7151;52.246;4.820;2023-05-24T00:44:14;16.20;60.80
14142;DHT22;7151;52.246;4.820;2023-05-24T00:46:39;16.10;60.80
14142;DHT22;7151;52.246;4.820;2023-05-24T00:49:06;16.10;60.80
14142;DHT22;7151;52.246;4.820;2023-05-24T00:51:32;16.10;61.00
14142;DHT22;7151;52.246;4.820;2023-05-24T00:53:58;16.10;61.10
14142;DHT22;7151;52.246;4.820;2023-05-24T00:56:24;16.00;61.10
14142;DHT22;7151;52.246;4.820;2023-05-24T00:58:51;16.00;61.20
14142;DHT22;7151;52.246;4.820;2023-05-24T01:01:20;16.00;61.30
14142;DHT22;7151;52.246;4.820;2023-05-24T01:03:50;16.00;61.40
14142;DHT22;7151;52.246;4.820;2023-05-24T01:06:17;15.90;61.40
14142;DHT22;7151;52.246;4.820;2023-05-24T01:08:59;15.90;61.40
14142;DHT22;7151;52.246;4.820;2023-05-24T01:14:37;15.90;61.60
14142;DHT22;7151;52.246;4.820;2023-05-24T01:17:17;15.80;61.60
14142;DHT22;7151;52.246;4.820;2023-05-24T01:19:54;15.80;61.50
14142;DHT22;7151;52.246;4.820;2023-05-24T01:25:11;15.80;61.70
14142;DHT22;7151;52.246;4.820;2023-05-24T01:27:38;15.70;61.80
14142;DHT22;7151;52.246;4.820;2023-05-24T01:30:06;15.70;61.80
14142;DHT22;7151;52.246;4.820;2023-05-24T01:32:32;15.70;62.00
14142;DHT22;7151;52.246;4.820;2023-05-24T01:34:57;15.70;62.10
14142;DHT22;7151;52.246;4.820;2023-05-24T01:37:23;15.70;62.20
14142;DHT22;7151;52.246;4.820;2023-05-24T01:39:49;15.70;62.30
14142;DHT22;7151;52.246;4.820;2023-05-24T01:42:35;15.60;62.40
14142;DHT22;7151;52.246;4.820;2023-05-24T01:45:28;15.60;62.60
14142;DHT22;7151;52.246;4.820;2023-05-24T01:50:34;15.60;62.50
14142;DHT22;7151;52.246;4.820;2023-05-24T01:53:07;15.60;62.60
14142;DHT22;7151;52.246;4.820;2023-05-24T01:55:34;15.60;62.70
14142;DHT22;7151;52.246;4.820;2023-05-24T01:58:02;15.50;62.70
14142;DHT22;7151;52.246;4.820;2023-05-24T02:00:30;15.50;62.80
14142;DHT22;7151;52.246;4.820;2023-05-24T02:02:57;15.50;62.90
14142;DHT22;7151;52.246;4.820;2023-05-24T02:05:23;15.50;62.90
14142;DHT22;7151;52.246;4.820;2023-05-24T02:07:48;15.50;63.00
14142;DHT22;7151;52.246;4.820;2023-05-24T02:10:14;15.40;63.00
14142;DHT22;7151;52.246;4.820;2023-05-24T02:12:40;15.40;63.10
14142;DHT22;7151;52.246;4.820;2023-05-24T02:15:06;15.40;63.20
14142;DHT22;7151;52.246;4.820;2023-05-24T02:17:31;15.40;63.30
14142;DHT22;7151;52.246;4.820;2023-05-24T02:20:00;15.40;63.40
14142;DHT22;7151;52.246;4.820;2023-05-24T02:22:26;15.40;63.40
14142;DHT22;7151;52.246;4.820;2023-05-24T02:24:53;15.40;63.50
14142;DHT22;7151;52.246;4.820;2023-05-24T02:27:18;15.30;63.50
14142;DHT22;7151;52.246;4.820;2023-05-24T02:29:44;15.30;63.60
14142;DHT22;7151;52.246;4.820;2023-05-24T02:32:10;15.30;63.60
14142;DHT22;7151;52.246;4.820;2023-05-24T02:34:35;15.30;63.70
14142;DHT22;7151;52.246;4.820;2023-05-24T02:37:01;15.30;63.70
14142;DHT22;7151;52.246;4.820;2023-05-24T02:39:27;15.30;63.80
14142;DHT22;7151;52.246;4.820;2023-05-24T02:41:52;15.30;63.90
14142;DHT22;7151;52.246;4.820;2023-05-24T02:44:18;15.20;63.90
14142;DHT22;7151;52.246;4.820;2023-05-24T02:46:43;15.20;63.90
14142;DHT22;7151;52.246;4.820;2023-05-24T02:49:09;15.20;64.00
14142;DHT22;7151;52.246;4.820;2023-05-24T02:51:35;15.20;64.00
14142;DHT22;7151;52.246;4.820;2023-05-24T02:54:01;15.10;64.00
14142;DHT22;7151;52.246;4.820;2023-05-24T02:56:27;15.10;64.10
14142;DHT22;7151;52.246;4.820;2023-05-24T02:58:54;15.10;64.20
14142;DHT22;7151;52.246;4.820;2023-05-24T03:01:20;15.10;64.30
14142;DHT22;7151;52.246;4.820;2023-05-24T03:03:46;15.10;64.40
14142;DHT22;7151;52.246;4.820;2023-05-24T03:06:11;15.10;64.50
14142;DHT22;7151;52.246;4.820;2023-05-24T03:08:38;15.00;64.50
14142;DHT22;7151;52.246;4.820;2023-05-24T03:11:04;15.10;64.70
14142;DHT22;7151;52.246;4.820;2023-05-24T03:13:30;15.00;64.70
14142;DHT22;7151;52.246;4.820;2023-05-24T03:15:55;15.00;64.80
14142;DHT22;7151;52.246;4.820;2023-05-24T03:18:21;15.00;64.90
14142;DHT22;7151;52.246;4.820;2023-05-24T03:20:47;15.00;64.90
14142;DHT22;7151;52.246;4.820;2023-05-24T03:23:12;15.00;65.00
14142;DHT22;7151;52.246;4.820;2023-05-24T03:25:39;15.00;65.00
14142;DHT22;7151;52.246;4.820;2023-05-24T03:28:05;15.00;65.10
14142;DHT22;7151;52.246;4.820;2023-05-24T03:30:31;14.90;65.10
14142;DHT22;7151;52.246;4.820;2023-05-24T03:32:57;14.90;65.10
14142;DHT22;7151;52.246;4.820;2023-05-24T03:35:22;14.90;65.20
14142;DHT22;7151;52.246;4.820;2023-05-24T03:37:48;14.90;65.20
14142;DHT22;7151;52.246;4.820;2023-05-24T03:40:14;14.90;65.30
14142;DHT22;7151;52.246;4.820;2023-05-24T03:42:39;14.80;65.30
14142;DHT22;7151;52.246;4.820;2023-05-24T03:45:06;14.90;65.50
14142;DHT22;7151;52.246;4.820;2023-05-24T03:47:31;14.80;65.50
14142;DHT22;7151;52.246;4.820;2023-05-24T03:49:57;14.80;65.50
14142;DHT22;7151;52.246;4.820;2023-05-24T03:52:23;14.80;65.60
14142;DHT22;7151;52.246;4.820;2023-05-24T03:54:49;14.80;65.70
14142;DHT22;7151;52.246;4.820;2023-05-24T03:57:15;14.80;65.80
14142;DHT22;7151;52.246;4.820;2023-05-24T03:59:40;14.80;65.90
14142;DHT22;7151;52.246;4.820;2023-05-24T04:02:06;14.80;65.90
14142;DHT22;7151;52.246;4.820;2023-05-24T04:04:31;14.80;66.10
14142;DHT22;7151;52.246;4.820;2023-05-24T04:06:57;14.70;66.20
14142;DHT22;7151;52.246;4.820;2023-05-24T04:09:23;14.70;66.20
14142;DHT22;7151;52.246;4.820;2023-05-24T04:11:48;14.70;66.40
14142;DHT22;7151;52.246;4.820;2023-05-24T04:14:14;14.70;66.50
14142;DHT22;7151;52.246;4.820;2023-05-24T04:16:40;14.70;66.60
14142;DHT22;7151;52.246;4.820;2023-05-24T04:19:06;14.70;66.80
14142;DHT22;7151;52.246;4.820;2023-05-24T04:21:32;14.70;67.00
14142;DHT22;7151;52.246;4.820;2023-05-24T04:23:58;14.70;67.10
14142;DHT22;7151;52.246;4.820;2023-05-24T04:26:28;14.70;67.20
14142;DHT22;7151;52.246;4.820;2023-05-24T04:28:54;14.70;67.30
14142;DHT22;7151;52.246;4.820;2023-05-24T04:31:20;14.70;67.50
14142;DHT22;7151;52.246;4.820;2023-05-24T04:33:45;14.70;67.60
14142;DHT22;7151;52.246;4.820;2023-05-24T04:36:12;14.70;67.80
14142;DHT22;7151;52.246;4.820;2023-05-24T04:38:38;14.80;68.10
14142;DHT22;7151;52.246;4.820;2023-05-24T04:41:05;14.80;68.20
14142;DHT22;7151;52.246;4.820;2023-05-24T04:43:31;14.80;68.40
14142;DHT22;7151;52.246;4.820;2023-05-24T04:45:58;14.80;68.50
14142;DHT22;7151;52.246;4.820;2023-05-24T04:48:23;14.80;68.60
14142;DHT22;7151;52.246;4.820;2023-05-24T04:50:50;14.90;68.80
14142;DHT22;7151;52.246;4.820;2023-05-24T04:53:17;14.90;68.90
14142;DHT22;7151;52.246;4.820;2023-05-24T04:55:42;14.90;69.10
14142;DHT22;7151;52.246;4.820;2023-05-24T04:58:08;14.90;69.20
14142;DHT22;7151;52.246;4.820;2023-05-24T05:00:34;15.00;69.30
14142;DHT22;7151;52.246;4.820;2023-05-24T05:02:59;15.00;69.50
14142;DHT22;7151;52.246;4.820;2023-05-24T05:05:25;15.00;69.60
14142;DHT22;7151;52.246;4.820;2023-05-24T05:07:50;15.00;69.70
14142;DHT22;7151;52.246;4.820;2023-05-24T05:10:16;15.10;69.80
14142;DHT22;7151;52.246;4.820;2023-05-24T05:12:42;15.10;69.90
14142;DHT22;7151;52.246;4.820;2023-05-24T05:15:08;15.10;70.00
14142;DHT22;7151;52.246;4.820;2023-05-24T05:17:34;15.20;70.10
14142;DHT22;7151;52.246;4.820;2023-05-24T05:19:59;15.20;70.30
14142;DHT22;7151;52.246;4.820;2023-05-24T05:22:25;15.20;70.40
14142;DHT22;7151;52.246;4.820;2023-05-24T05:24:51;15.30;70.60
14142;DHT22;7151;52.246;4.820;2023-05-24T05:27:16;15.30;70.60
14142;DHT22;7151;52.246;4.820;2023-05-24T05:29:42;15.30;70.60
14142;DHT22;7151;52.246;4.820;2023-05-24T05:32:08;15.40;70.70
14142;DHT22;7151;52.246;4.820;2023-05-24T05:34:33;15.40;70.90
14142;DHT22;7151;52.246;4.820;2023-05-24T05:36:59;15.40;70.90
14142;DHT22;7151;52.246;4.820;2023-05-24T05:39:25;15.40;70.90
14142;DHT22;7151;52.246;4.820;2023-05-24T05:41:51;15.50;70.90
14142;DHT22;7151;52.246;4.820;2023-05-24T05:44:16;15.50;70.90
14142;DHT22;7151;52.246;4.820;2023-05-24T05:46:42;15.60;70.90
14142;DHT22;7151;52.246;4.820;2023-05-24T05:49:10;15.60;70.90
14142;DHT22;7151;52.246;4.820;2023-05-24T05:51:36;15.60;70.90
14142;DHT22;7151;52.246;4.820;2023-05-24T05:54:03;15.70;71.10
14142;DHT22;7151;52.246;4.820;2023-05-24T05:56:29;15.70;71.10
14142;DHT22;7151;52.246;4.820;2023-05-24T05:58:54;15.80;71.10
14142;DHT22;7151;52.246;4.820;2023-05-24T06:01:20;15.80;71.10
14142;DHT22;7151;52.246;4.820;2023-05-24T06:03:46;15.80;71.00
14142;DHT22;7151;52.246;4.820;2023-05-24T06:06:11;15.90;71.00
14142;DHT22;7151;52.246;4.820;2023-05-24T06:08:37;15.90;71.10
14142;DHT22;7151;52.246;4.820;2023-05-24T06:11:05;16.00;71.30
14142;DHT22;7151;52.246;4.820;2023-05-24T06:13:30;16.00;71.30
14142;DHT22;7151;52.246;4.820;2023-05-24T06:15:57;16.00;71.20
14142;DHT22;7151;52.246;4.820;2023-05-24T06:18:23;16.10;71.00
14142;DHT22;7151;52.246;4.820;2023-05-24T06:20:49;16.20;71.60
14142;DHT22;7151;52.246;4.820;2023-05-24T06:23:15;16.20;70.90
14142;DHT22;7151;52.246;4.820;2023-05-24T06:25:41;16.20;70.80
14142;DHT22;7151;52.246;4.820;2023-05-24T06:28:08;16.30;70.80
14142;DHT22;7151;52.246;4.820;2023-05-24T06:30:34;16.30;70.60
14142;DHT22;7151;52.246;4.820;2023-05-24T06:33:00;16.30;70.70
14142;DHT22;7151;52.246;4.820;2023-05-24T06:35:26;16.40;70.60
14142;DHT22;7151;52.246;4.820;2023-05-24T06:37:52;16.40;70.60
14142;DHT22;7151;52.246;4.820;2023-05-24T06:40:17;16.40;70.60
14142;DHT22;7151;52.246;4.820;2023-05-24T06:42:43;16.50;70.60
14142;DHT22;7151;52.246;4.820;2023-05-24T06:45:09;16.50;70.40
14142;DHT22;7151;52.246;4.820;2023-05-24T06:47:35;16.50;70.40
14142;DHT22;7151;52.246;4.820;2023-05-24T06:50:01;16.60;70.40
14142;DHT22;7151;52.246;4.820;2023-05-24T06:52:28;16.60;70.30
14142;DHT22;7151;52.246;4.820;2023-05-24T06:54:54;16.60;70.20
14142;DHT22;7151;52.246;4.820;2023-05-24T06:57:20;16.70;70.10
14142;DHT22;7151;52.246;4.820;2023-05-24T06:59:46;16.70;70.00
14142;DHT22;7151;52.246;4.820;2023-05-24T07:02:11;16.70;69.80
14142;DHT22;7151;52.246;4.820;2023-05-24T07:04:37;16.80;69.80
14142;DHT22;7151;52.246;4.820;2023-05-24T07:07:05;16.80;69.80
14142;DHT22;7151;52.246;4.820;2023-05-24T07:09:31;16.80;69.80
14142;DHT22;7151;52.246;4.820;2023-05-24T07:11:57;16.80;69.60
14142;DHT22;7151;52.246;4.820;2023-05-24T07:14:22;16.90;69.60
14142;DHT22;7151;52.246;4.820;2023-05-24T07:16:50;16.90;69.70
14142;DHT22;7151;52.246;4.820;2023-05-24T07:19:15;16.90;69.80
14142;DHT22;7151;52.246;4.820;2023-05-24T07:21:41;16.90;69.90
14142;DHT22;7151;52.246;4.820;2023-05-24T07:24:07;17.00;70.00
14142;DHT22;7151;52.246;4.820;2023-05-24T07:26:32;17.00;69.70
14142;DHT22;7151;52.246;4.820;2023-05-24T07:28:58;17.10;69.30
14142;DHT22;7151;52.246;4.820;2023-05-24T07:31:24;17.10;69.10
14142;DHT22;7151;52.246;4.820;2023-05-24T07:33:50;17.20;69.00
14142;DHT22;7151;52.246;4.820;2023-05-24T07:36:16;17.20;68.70
14142;DHT22;7151;52.246;4.820;2023-05-24T07:38:41;17.30;68.50
14142;DHT22;7151;52.246;4.820;2023-05-24T07:41:07;17.30;68.50
14142;DHT22;7151;52.246;4.820;2023-05-24T07:43:33;17.40;68.70
14142;DHT22;7151;52.246;4.820;2023-05-24T07:45:59;17.40;68.50
14142;DHT22;7151;52.246;4.820;2023-05-24T07:48:24;17.50;68.40
14142;DHT22;7151;52.246;4.820;2023-05-24T07:50:50;17.50;68.10
14142;DHT22;7151;52.246;4.820;2023-05-24T07:53:17;17.50;67.90
14142;DHT22;7151;52.246;4.820;2023-05-24T07:55:43;17.50;67.80
14142;DHT22;7151;52.246;4.820;2023-05-24T07:58:10;17.60;67.80
14142;DHT22;7151;52.246;4.820;2023-05-24T08:00:35;17.60;67.60
14142;DHT22;7151;52.246;4.820;2023-05-24T08:03:02;17.60;67.70
14142;DHT22;7151;52.246;4.820;2023-05-24T08:05:29;17.70;67.70
14142;DHT22;7151;52.246;4.820;2023-05-24T08:07:55;17.70;67.40
14142;DHT22;7151;52.246;4.820;2023-05-24T08:10:21;17.70;67.10
14142;DHT22;7151;52.246;4.820;2023-05-24T08:12:48;17.70;67.10
14142;DHT22;7151;52.246;4.820;2023-05-24T08:15:15;17.80;67.10
14142;DHT22;7151;52.246;4.820;2023-05-24T08:17:41;17.80;67.10
14142;DHT22;7151;52.246;4.820;2023-05-24T08:20:07;17.80;66.80
14142;DHT22;7151;52.246;4.820;2023-05-24T08:22:40;17.90;66.70
14142;DHT22;7151;52.246;4.820;2023-05-24T08:25:05;17.90;66.60
14142;DHT22;7151;52.246;4.820;2023-05-24T08:27:31;17.90;66.40
14142;DHT22;7151;52.246;4.820;2023-05-24T08:29:57;17.90;66.30
14142;DHT22;7151;52.246;4.820;2023-05-24T08:32:23;17.90;66.20
14142;DHT22;7151;52.246;4.820;2023-05-24T08:34:48;17.90;66.00
14142;DHT22;7151;52.246;4.820;2023-05-24T08:37:14;18.00;66.20
14142;DHT22;7151;52.246;4.820;2023-05-24T08:39:43;18.00;66.30
14142;DHT22;7151;52.246;4.820;2023-05-24T08:42:09;18.00;66.30
14142;DHT22;7151;52.246;4.820;2023-05-24T08:44:44;18.10;66.30
14142;DHT22;7151;52.246;4.820;2023-05-24T08:47:12;18.10;66.20
14142;DHT22;7151;52.246;4.820;2023-05-24T08:49:40;18.20;65.90
14142;DHT22;7151;52.246;4.820;2023-05-24T08:52:05;18.30;65.30
14142;DHT22;7151;52.246;4.820;2023-05-24T08:54:36;18.30;65.10
14142;DHT22;7151;52.246;4.820;2023-05-24T08:57:02;18.40;65.10
14142;DHT22;7151;52.246;4.820;2023-05-24T08:59:27;18.40;65.00
14142;DHT22;7151;52.246;4.820;2023-05-24T09:01:53;18.50;64.90
14142;DHT22;7151;52.246;4.820;2023-05-24T09:04:23;18.50;64.70
14142;DHT22;7151;52.246;4.820;2023-05-24T09:06:50;18.50;64.60
14142;DHT22;7151;52.246;4.820;2023-05-24T09:09:17;18.60;64.70
14142;DHT22;7151;52.246;4.820;2023-05-24T09:11:46;18.60;64.70
14142;DHT22;7151;52.246;4.820;2023-05-24T09:14:14;18.70;64.60
14142;DHT22;7151;52.246;4.820;2023-05-24T09:16:40;18.80;64.70
14142;DHT22;7151;52.246;4.820;2023-05-24T09:19:06;18.80;64.40
14142;DHT22;7151;52.246;4.820;2023-05-24T09:21:32;18.90;64.00
14142;DHT22;7151;52.246;4.820;2023-05-24T09:23:58;19.00;63.80
14142;DHT22;7151;52.246;4.820;2023-05-24T09:26:26;19.00;63.60
14142;DHT22;7151;52.246;4.820;2023-05-24T09:28:56;19.10;63.50
14142;DHT22;7151;52.246;4.820;2023-05-24T09:31:32;19.20;63.30
14142;DHT22;7151;52.246;4.820;2023-05-24T09:33:58;19.20;63.30
14142;DHT22;7151;52.246;4.820;2023-05-24T09:36:24;19.30;63.40
14142;DHT22;7151;52.246;4.820;2023-05-24T09:39:05;19.40;63.30
14142;DHT22;7151;52.246;4.820;2023-05-24T09:41:32;19.50;63.20
14142;DHT22;7151;52.246;4.820;2023-05-24T09:43:57;19.50;63.10
14142;DHT22;7151;52.246;4.820;2023-05-24T09:46:23;19.60;62.80
14142;DHT22;7151;52.246;4.820;2023-05-24T09:49:00;19.60;62.50
14142;DHT22;7151;52.246;4.820;2023-05-24T09:51:28;19.70;62.40
14142;DHT22;7151;52.246;4.820;2023-05-24T09:53:59;19.80;62.40
14142;DHT22;7151;52.246;4.820;2023-05-24T09:56:25;19.80;61.80
14142;DHT22;7151;52.246;4.820;2023-05-24T09:58:51;19.90;61.80
14142;DHT22;7151;52.246;4.820;2023-05-24T10:01:21;19.90;61.80
14142;DHT22;7151;52.246;4.820;2023-05-24T10:06:18;20.00;61.70
14142;DHT22;7151;52.246;4.820;2023-05-24T10:08:44;20.10;61.70
14142;DHT22;7151;52.246;4.820;2023-05-24T10:11:12;20.10;61.50
14142;DHT22;7151;52.246;4.820;2023-05-24T10:13:38;20.20;61.30
14142;DHT22;7151;52.246;4.820;2023-05-24T10:16:04;20.20;61.20
14142;DHT22;7151;52.246;4.820;2023-05-24T10:18:30;20.20;61.00
14142;DHT22;7151;52.246;4.820;2023-05-24T10:20:56;20.20;61.00
14142;DHT22;7151;52.246;4.820;2023-05-24T10:23:29;20.30;61.10
14142;DHT22;7151;52.246;4.820;2023-05-24T10:26:08;20.30;61.10
14142;DHT22;7151;52.246;4.820;2023-05-24T10:28:46;20.40;61.00
14142;DHT22;7151;52.246;4.820;2023-05-24T10:31:32;20.40;60.60
14142;DHT22;7151;52.246;4.820;2023-05-24T10:34:00;20.40;60.30
14142;DHT22;7151;52.246;4.820;2023-05-24T10:36:27;20.40;60.40
14142;DHT22;7151;52.246;4.820;2023-05-24T10:38:53;20.40;60.10
14142;DHT22;7151;52.246;4.820;2023-05-24T10:41:19;20.40;59.90
14142;DHT22;7151;52.246;4.820;2023-05-24T10:43:46;20.40;59.90
14142;DHT22;7151;52.246;4.820;2023-05-24T10:46:14;20.40;59.90
14142;DHT22;7151;52.246;4.820;2023-05-24T10:48:41;20.40;59.90
14142;DHT22;7151;52.246;4.820;2023-05-24T10:51:29;20.40;59.80
14142;DHT22;7151;52.246;4.820;2023-05-24T10:54:13;20.40;59.70
14142;DHT22;7151;52.246;4.820;2023-05-24T10:56:47;20.40;59.70
14142;DHT22;7151;52.246;4.820;2023-05-24T10:59:27;20.40;59.80
14142;DHT22;7151;52.246;4.820;2023-05-24T11:01:55;20.40;59.70
14142;DHT22;7151;52.246;4.820;2023-05-24T11:04:22;20.40;59.80
14142;DHT22;7151;52.246;4.820;2023-05-24T11:06:49;20.40;59.90
14142;DHT22;7151;52.246;4.820;2023-05-24T11:09:17;20.40;59.90
14142;DHT22;7151;52.246;4.820;2023-05-24T11:11:47;20.40;59.90
14142;DHT22;7151;52.246;4.820;2023-05-24T11:14:17;20.40;60.00
14142;DHT22;7151;52.246;4.820;2023-05-24T11:16:44;20.40;60.00
14142;DHT22;7151;52.246;4.820;2023-05-24T11:19:17;20.40;59.80
14142;DHT22;7151;52.246;4.820;2023-05-24T11:21:44;20.50;59.80
14142;DHT22;7151;52.246;4.820;2023-05-24T11:24:10;20.50;59.90
14142;DHT22;7151;52.246;4.820;2023-05-24T11:26:36;20.50;59.90
14142;DHT22;7151;52.246;4.820;2023-05-24T11:29:02;20.40;59.80
14142;DHT22;7151;52.246;4.820;2023-05-24T11:31:28;20.50;59.80
14142;DHT22;7151;52.246;4.820;2023-05-24T11:33:54;20.60;59.90
14142;DHT22;7151;52.246;4.820;2023-05-24T11:36:20;20.60;59.90
14142;DHT22;7151;52.246;4.820;2023-05-24T11:38:46;20.60;59.80
14142;DHT22;7151;52.246;4.820;2023-05-24T11:41:12;20.60;59.60
14142;DHT22;7151;52.246;4.820;2023-05-24T11:43:37;20.70;59.60
14142;DHT22;7151;52.246;4.820;2023-05-24T11:46:03;20.70;59.60
14142;DHT22;7151;52.246;4.820;2023-05-24T11:48:29;20.70;59.60
14142;DHT22;7151;52.246;4.820;2023-05-24T11:50:55;20.70;59.50
14142;DHT22;7151;52.246;4.820;2023-05-24T11:53:22;20.70;59.40
14142;DHT22;7151;52.246;4.820;2023-05-24T11:55:49;20.70;59.40
14142;DHT22;7151;52.246;4.820;2023-05-24T12:00:42;20.70;59.40
14142;DHT22;7151;52.246;4.820;2023-05-24T12:03:08;20.70;59.40
14142;DHT22;7151;52.246;4.820;2023-05-24T12:05:35;20.70;59.30
14142;DHT22;7151;52.246;4.820;2023-05-24T12:08:03;20.70;59.20
14142;DHT22;7151;52.246;4.820;2023-05-24T12:10:34;20.70;59.30
14142;DHT22;7151;52.246;4.820;2023-05-24T12:13:02;20.70;59.30
14142;DHT22;7151;52.246;4.820;2023-05-24T12:15:27;20.70;59.20
14142;DHT22;7151;52.246;4.820;2023-05-24T12:17:53;20.70;59.20
14142;DHT22;7151;52.246;4.820;2023-05-24T12:20:19;20.60;59.30
14142;DHT22;7151;52.246;4.820;2023-05-24T12:22:53;20.60;59.20
14142;DHT22;7151;52.246;4.820;2023-05-24T12:25:20;20.60;59.30
14142;DHT22;7151;52.246;4.820;2023-05-24T12:27:54;20.60;59.40
14142;DHT22;7151;52.246;4.820;2023-05-24T12:30:24;20.60;59.40
14142;DHT22;7151;52.246;4.820;2023-05-24T12:32:50;20.60;59.40
14142;DHT22;7151;52.246;4.820;2023-05-24T12:35:20;20.50;59.40
14142;DHT22;7151;52.246;4.820;2023-05-24T12:37:46;20.60;59.40
14142;DHT22;7151;52.246;4.820;2023-05-24T12:40:19;20.60;59.30
14142;DHT22;7151;52.246;4.820;2023-05-24T12:42:50;20.60;59.30
14142;DHT22;7151;52.246;4.820;2023-05-24T12:45:16;20.60;59.40
14142;DHT22;7151;52.246;4.820;2023-05-24T12:47:50;20.50;59.40
14142;DHT22;7151;52.246;4.820;2023-05-24T12:50:21;20.60;59.50
14142;DHT22;7151;52.246;4.820;2023-05-24T12:52:47;20.60;59.50
14142;DHT22;7151;52.246;4.820;2023-05-24T12:55:23;20.60;59.40
14142;DHT22;7151;52.246;4.820;2023-05-24T12:57:51;20.60;59.30
14142;DHT22;7151;52.246;4.820;2023-05-24T13:00:21;20.60;59.10
14142;DHT22;7151;52.246;4.820;2023-05-24T13:02:48;20.60;59.10
14142;DHT22;7151;52.246;4.820;2023-05-24T13:05:14;20.60;59.20
14142;DHT22;7151;52.246;4.820;2023-05-24T13:07:41;20.60;59.40
14142;DHT22;7151;52.246;4.820;2023-05-24T13:10:08;20.60;59.20
14142;DHT22;7151;52.246;4.820;2023-05-24T13:12:33;20.60;59.20
14142;DHT22;7151;52.246;4.820;2023-05-24T13:15:00;20.60;59.20
14142;DHT22;7151;52.246;4.820;2023-05-24T13:17:25;20.60;59.30
14142;DHT22;7151;52.246;4.820;2023-05-24T13:19:51;20.60;59.40
14142;DHT22;7151;52.246;4.820;2023-05-24T13:22:17;20.60;59.40
14142;DHT22;7151;52.246;4.820;2023-05-24T13:24:42;20.60;59.40
14142;DHT22;7151;52.246;4.820;2023-05-24T13:27:08;20.60;59.40
14142;DHT22;7151;52.246;4.820;2023-05-24T13:29:34;20.70;59.50
14142;DHT22;7151;52.246;4.820;2023-05-24T13:32:00;20.70;59.50
14142;DHT22;7151;52.246;4.820;2023-05-24T13:34:26;20.60;59.30
14142;DHT22;7151;52.246;4.820;2023-05-24T13:36:52;20.70;59.40
14142;DHT22;7151;52.246;4.820;2023-05-24T13:39:20;20.70;59.40
14142;DHT22;7151;52.246;4.820;2023-05-24T13:41:45;20.60;59.30
14142;DHT22;7151;52.246;4.820;2023-05-24T13:44:12;20.70;59.40
14142;DHT22;7151;52.246;4.820;2023-05-24T13:46:38;20.60;59.40
14142;DHT22;7151;52.246;4.820;2023-05-24T13:49:04;20.70;59.50
14142;DHT22;7151;52.246;4.820;2023-05-24T13:51:30;20.70;59.40
14142;DHT22;7151;52.246;4.820;2023-05-24T13:53:57;20.70;59.40
14142;DHT22;7151;52.246;4.820;2023-05-24T13:56:23;20.70;59.30
14142;DHT22;7151;52.246;4.820;2023-05-24T13:58:50;20.70;59.20
14142;DHT22;7151;52.246;4.820;2023-05-24T14:01:16;20.70;59.20
14142;DHT22;7151;52.246;4.820;2023-05-24T14:03:42;20.70;59.60
14142;DHT22;7151;52.246;4.820;2023-05-24T14:06:08;20.70;59.00
14142;DHT22;7151;52.246;4.820;2023-05-24T14:08:34;20.70;58.90
14142;DHT22;7151;52.246;4.820;2023-05-24T14:10:59;20.70;58.90
14142;DHT22;7151;52.246;4.820;2023-05-24T14:13:25;20.70;58.90
14142;DHT22;7151;52.246;4.820;2023-05-24T14:15:51;20.70;58.90
14142;DHT22;7151;52.246;4.820;2023-05-24T14:18:16;20.70;58.80
14142;DHT22;7151;52.246;4.820;2023-05-24T14:20:42;20.70;58.70
14142;DHT22;7151;52.246;4.820;2023-05-24T14:23:08;20.70;58.70
14142;DHT22;7151;52.246;4.820;2023-05-24T14:25:34;20.80;58.60
14142;DHT22;7151;52.246;4.820;2023-05-24T14:28:00;20.80;58.50
14142;DHT22;7151;52.246;4.820;2023-05-24T14:30:29;20.80;58.40
14142;DHT22;7151;52.246;4.820;2023-05-24T14:32:55;20.80;58.40
14142;DHT22;7151;52.246;4.820;2023-05-24T14:35:20;20.90;58.40
14142;DHT22;7151;52.246;4.820;2023-05-24T14:37:46;20.90;58.40
14142;DHT22;7151;52.246;4.820;2023-05-24T14:40:12;20.90;58.40
14142;DHT22;7151;52.246;4.820;2023-05-24T14:42:37;20.90;58.30
14142;DHT22;7151;52.246;4.820;2023-05-24T14:45:03;21.00;58.20
14142;DHT22;7151;52.246;4.820;2023-05-24T14:47:29;21.00;58.40
14142;DHT22;7151;52.246;4.820;2023-05-24T14:49:55;21.20;58.50
14142;DHT22;7151;52.246;4.820;2023-05-24T14:52:20;21.30;58.30
14142;DHT22;7151;52.246;4.820;2023-05-24T14:54:46;21.30;58.10
14142;DHT22;7151;52.246;4.820;2023-05-24T14:57:11;21.40;58.00
14142;DHT22;7151;52.246;4.820;2023-05-24T14:59:37;21.50;58.00
14142;DHT22;7151;52.246;4.820;2023-05-24T15:02:03;21.60;57.80
14142;DHT22;7151;52.246;4.820;2023-05-24T15:04:28;21.70;57.90
14142;DHT22;7151;52.246;4.820;2023-05-24T15:06:54;21.80;57.80
14142;DHT22;7151;52.246;4.820;2023-05-24T15:09:20;21.80;57.60
14142;DHT22;7151;52.246;4.820;2023-05-24T15:11:46;21.90;57.40
14142;DHT22;7151;52.246;4.820;2023-05-24T15:14:11;21.90;57.20
14142;DHT22;7151;52.246;4.820;2023-05-24T15:16:37;21.90;57.00
14142;DHT22;7151;52.246;4.820;2023-05-24T15:19:02;21.90;56.90
14142;DHT22;7151;52.246;4.820;2023-05-24T15:21:28;21.80;56.70
14142;DHT22;7151;52.246;4.820;2023-05-24T15:23:53;21.90;56.80
14142;DHT22;7151;52.246;4.820;2023-05-24T15:26:19;21.90;56.70
14142;DHT22;7151;52.246;4.820;2023-05-24T15:28:45;21.90;56.50
14142;DHT22;7151;52.246;4.820;2023-05-24T15:31:11;21.90;56.40
14142;DHT22;7151;52.246;4.820;2023-05-24T15:33:36;21.90;56.20
14142;DHT22;7151;52.246;4.820;2023-05-24T15:36:05;21.90;56.10
14142;DHT22;7151;52.246;4.820;2023-05-24T15:38:32;21.90;56.80
14142;DHT22;7151;52.246;4.820;2023-05-24T15:40:58;21.80;56.20
14142;DHT22;7151;52.246;4.820;2023-05-24T15:43:23;21.80;56.10
14142;DHT22;7151;52.246;4.820;2023-05-24T15:45:49;21.80;56.10
14142;DHT22;7151;52.246;4.820;2023-05-24T15:48:15;21.80;56.10
14142;DHT22;7151;52.246;4.820;2023-05-24T15:50:40;21.70;56.10
14142;DHT22;7151;52.246;4.820;2023-05-24T15:53:06;21.70;56.20
14142;DHT22;7151;52.246;4.820;2023-05-24T15:55:31;21.70;56.20